Hovedside
METAR-TAF:

METAR-TAF

Lufthavner :

Jakutsk, Russland

breddegrad: 62-01N, lengdegrad: 129-43E, høyde over havet: 103 m

Gjeldene værobservasjon

Denne rapporten ble laget for 32 minutter siden, klokken 18:00 UTC
Vind 4 kt fra Nordvest
Temperatur -8°C
Luftfuktighet 79%
Trykk 1007 hPa
Sikt 10 km eller mer
ingen skyer under 1500 m og ingen bygeskyer

METAR: UEEE 241800Z 32002MPS CAVOK M08/M11 Q1007 R23L/09//60 NOSIG RMK QFE746

Tid: 03:32 (18:32 UTC)

Varsel

Denne rapporten ble laget for 1 time og 32 minutter siden, klokken 17:00 UTC
Varsel gyldig fra 24. klokken 18 UTC til 25. klokken 24 UTC
Vind 6 kt fra Nordvest med vindkast opp mot 19 kt
Sikt 10 km eller mer
Spredte skyer i en høyde av 2000 ft, Bygeskyer.
Overskyet i en høyde av 7000 ft
Midlertidig
fra 24. klokken 18 UTC til 25. klokken 03 UTC
Sikt: 2100 m
lette snøbyger

TAF: UEEE 241700Z 2418/2524 32003G10MPS 9999 SCT020CB OVC070 TEMPO 2418/2503 2100 -SHSN

Værobservasjoner og værvarsel for over 4000 flyplasser (METAR- og TAF-rapporter).

Tilgjengelige stasjoner er representert av de røde og gule prikkene på kartet.

Hold musepekeren over prikken for å se navnet på stasjonen.

Klikk så for å se værobservasjoner og -varsler.

For å forandre kartet kan du klikke på den grønne knappen med svart kryss for å zoome inn, på den grønne knappen med strek for å zoome ut, eller på de grønne pilene for å se tilstøtende kart.


METAR-TAF: